createdAt,value
2022-08-26T00:04:34.691Z,24.12
2022-08-26T00:09:47.535Z,24
2022-08-26T00:14:52.917Z,23.94
2022-08-26T00:20:02.035Z,23.88
2022-08-26T00:25:11.150Z,23.75
2022-08-26T00:30:24.218Z,23.75
2022-08-26T00:35:28.740Z,23.75
2022-08-26T00:40:38.515Z,23.69
2022-08-26T00:45:47.759Z,23.69
2022-08-26T00:50:56.118Z,23.75
2022-08-26T00:56:04.615Z,23.5
2022-08-26T01:01:13.885Z,23.44
2022-08-26T01:06:22.773Z,23.25
2022-08-26T01:11:31.315Z,23.25
2022-08-26T01:16:39.905Z,23.31
2022-08-26T01:21:50.864Z,23.12
2022-08-26T01:27:00.609Z,23.06
2022-08-26T01:32:08.440Z,22.88
2022-08-26T01:37:18.843Z,23
2022-08-26T01:42:29.893Z,23.19
2022-08-26T01:47:39.647Z,23.06
2022-08-26T01:52:54.257Z,23.25
2022-08-26T01:57:57.875Z,23.25
2022-08-26T02:03:06.568Z,23.06
2022-08-26T02:08:16.653Z,23
2022-08-26T02:13:30.450Z,22.94
2022-08-26T02:18:46.850Z,22.69
2022-08-26T02:24:01.500Z,22.69
2022-08-26T02:29:16.824Z,22.75
2022-08-26T02:34:33.173Z,22.56
2022-08-26T02:39:47.982Z,22.5
2022-08-26T02:45:05.498Z,22.5
2022-08-26T02:49:33.059Z,22.31
2022-08-26T02:54:42.686Z,22.38
2022-08-26T02:59:53.075Z,22.38
2022-08-26T03:05:02.849Z,22.12
2022-08-26T03:10:12.594Z,22.06
2022-08-26T03:15:21.076Z,22.06
2022-08-26T03:20:30.208Z,21.75
2022-08-26T03:25:39.959Z,21.69
2022-08-26T03:30:49.093Z,21.62
2022-08-26T03:35:58.193Z,21.44
2022-08-26T03:41:06.662Z,21.38
2022-08-26T03:46:16.579Z,21.31
2022-08-26T03:51:26.195Z,21.19
2022-08-26T03:56:35.970Z,21.31
2022-08-26T04:01:44.573Z,21.19
2022-08-26T04:06:54.197Z,21.19
2022-08-26T04:12:04.595Z,21.12
2022-08-26T04:17:13.713Z,21.06
2022-08-26T04:22:25.169Z,21.12
2022-08-26T04:27:33.889Z,21.12
2022-08-26T04:32:42.355Z,21.06
2022-08-26T04:37:51.475Z,21.06
2022-08-26T04:42:59.956Z,20.94
2022-08-26T04:48:11.200Z,20.88
2022-08-26T04:53:18.194Z,20.62
2022-08-26T04:58:26.677Z,20.62
2022-08-26T05:03:35.960Z,20.69
2022-08-26T05:08:44.274Z,20.75
2022-08-26T05:13:54.049Z,20.69
2022-08-26T05:19:03.161Z,20.5
2022-08-26T05:24:12.918Z,20.56
2022-08-26T05:29:22.034Z,20.75
2022-08-26T05:34:30.804Z,20.88
2022-08-26T05:39:41.332Z,20.88
2022-08-26T05:44:55.342Z,20.81
2022-08-26T05:50:00.447Z,20.88
2022-08-26T05:55:09.555Z,21
2022-08-26T06:00:18.037Z,21
2022-08-26T06:05:27.167Z,21.12
2022-08-26T06:10:35.631Z,21.12
2022-08-26T06:15:45.495Z,21.25
2022-08-26T06:20:58.347Z,21.25
2022-08-26T06:26:03.648Z,21.31
2022-08-26T06:31:17.410Z,21.31
2022-08-26T06:36:32.223Z,21.5
2022-08-26T06:41:49.858Z,21.44
2022-08-26T06:47:05.862Z,21.5
2022-08-26T06:52:24.342Z,21.5
2022-08-26T06:56:57.717Z,21.5
2022-08-26T07:02:06.976Z,21.69
2022-08-26T07:07:16.598Z,22.06
2022-08-26T07:12:25.210Z,21.94
2022-08-26T07:17:34.065Z,22.12
2022-08-26T07:22:46.514Z,22.25
2022-08-26T07:27:55.636Z,22.31
2022-08-26T07:33:05.661Z,22.38
2022-08-26T07:38:15.794Z,22.31
2022-08-26T07:43:25.559Z,22.25
2022-08-26T07:48:35.313Z,21.88
2022-08-26T07:53:48.118Z,21.94
2022-08-26T07:58:55.476Z,22
2022-08-26T08:04:05.881Z,22
2022-08-26T08:09:20.120Z,22.19
2022-08-26T08:14:31.152Z,22.38
2022-08-26T08:19:40.934Z,22.12
2022-08-26T08:24:53.303Z,22.25
2022-08-26T08:30:01.074Z,22.25
2022-08-26T08:35:11.905Z,22.56
2022-08-26T08:40:20.120Z,22.69
2022-08-26T08:45:34.591Z,22.88
2022-08-26T08:50:39.411Z,22.69
2022-08-26T08:55:49.235Z,22.5
2022-08-26T09:00:59.685Z,22.56
2022-08-26T09:06:09.394Z,22.69
2022-08-26T09:11:19.161Z,22.88
2022-08-26T09:16:28.998Z,23
2022-08-26T09:21:38.694Z,22.94
2022-08-26T09:26:49.073Z,22.94
2022-08-26T09:31:57.571Z,23.25
2022-08-26T09:37:07.320Z,23.19
2022-08-26T09:42:16.913Z,23
2022-08-26T09:47:25.557Z,23.19
2022-08-26T09:52:36.533Z,23.25
2022-08-26T09:58:09.233Z,23.06
2022-08-26T10:03:17.393Z,23.12
2022-08-26T10:08:25.074Z,23.19
2022-08-26T10:13:35.856Z,23.31
2022-08-26T10:18:44.605Z,23.56
2022-08-26T10:23:53.075Z,23.75
2022-08-26T10:29:02.865Z,23.88
2022-08-26T10:34:14.164Z,23.75
2022-08-26T10:44:32.754Z,23.75
2022-08-26T10:49:44.674Z,24
2022-08-26T11:00:18.922Z,24.12
2022-08-26T11:11:47.994Z,24
2022-08-26T11:12:05.219Z,24
2022-08-26T11:17:09.237Z,23.69
2022-08-26T11:42:35.088Z,23.81
2022-08-26T11:54:49.714Z,23.5
2022-08-26T11:55:49.961Z,23.5
2022-08-26T12:00:58.998Z,24.12
2022-08-26T12:07:23.766Z,24.12
2022-08-26T12:19:34.909Z,24
2022-08-26T12:30:06.738Z,24.06
2022-08-26T12:40:38.984Z,23.75
2022-08-26T12:45:55.303Z,24.12
2022-08-26T12:51:12.356Z,23.94
2022-08-26T12:56:29.321Z,23.75
2022-08-26T13:01:46.574Z,23.38
2022-08-26T13:06:15.431Z,23.5
2022-08-26T13:10:40.350Z,23.69
2022-08-26T13:15:57.239Z,24.06
2022-08-26T13:21:14.687Z,23.94
2022-08-26T13:26:30.760Z,23.94
2022-08-26T13:31:06.432Z,24.06
2022-08-26T13:36:14.839Z,24.19
2022-08-26T13:41:29.773Z,24.25
2022-08-26T13:46:33.983Z,24.06
2022-08-26T13:51:42.870Z,24.06
2022-08-26T13:56:52.595Z,24.25
2022-08-26T14:02:02.386Z,24.44
2022-08-26T14:07:12.118Z,24.06
2022-08-26T14:12:21.249Z,24
2022-08-26T14:17:32.271Z,23.88
2022-08-26T14:23:12.943Z,24.12
2022-08-26T14:27:58.794Z,24
2022-08-26T14:33:07.325Z,23.94
2022-08-26T14:38:16.506Z,23.88
2022-08-26T14:43:26.194Z,23.75
2022-08-26T14:48:35.997Z,23.81
2022-08-26T14:53:45.105Z,23.81
2022-08-26T14:58:57.874Z,23.81
2022-08-26T15:04:08.669Z,23.62
2022-08-26T15:14:32.762Z,23.56
2022-08-26T15:19:37.793Z,23.56
2022-08-26T15:24:46.931Z,23.56
2022-08-26T15:29:56.096Z,23.5
2022-08-26T15:35:10.597Z,23.44
2022-08-26T15:40:27.454Z,23.31
2022-08-26T15:56:20.362Z,23.25
2022-08-26T16:53:51.479Z,22.25
2022-08-26T17:05:05.090Z,22.25
2022-08-26T18:02:23.081Z,21.69
2022-08-26T18:06:47.906Z,21.75
2022-08-26T18:11:14.042Z,21.81
2022-08-26T18:16:23.794Z,21.81
2022-08-26T18:21:32.291Z,21.81
2022-08-26T18:26:42.040Z,21.75
2022-08-26T18:31:51.179Z,21.56
2022-08-26T18:37:00.378Z,21.69
2022-08-26T18:42:11.374Z,21.62
2022-08-26T18:47:22.354Z,21.62
2022-08-26T18:52:30.210Z,21.44
2022-08-26T18:57:39.318Z,21.44
2022-08-26T19:02:52.365Z,21.25
2022-08-26T19:07:56.277Z,21.5
2022-08-26T19:13:04.770Z,21.56
2022-08-26T19:18:14.515Z,21.56
2022-08-26T19:23:32.592Z,21.5
2022-08-26T19:28:35.971Z,21.5
2022-08-26T19:33:45.077Z,21.25
2022-08-26T19:38:53.557Z,21.25
2022-08-26T19:44:02.689Z,21.31
2022-08-26T19:49:12.435Z,21.25
2022-08-26T19:54:20.917Z,21.12
2022-08-26T19:59:30.675Z,21.19
2022-08-26T20:04:39.797Z,21.12
2022-08-26T20:09:50.211Z,21.19
2022-08-26T20:14:59.314Z,21
2022-08-26T20:20:33.072Z,20.94
2022-08-26T20:25:17.554Z,20.75
2022-08-26T20:30:28.218Z,20.69
2022-08-26T20:35:44.375Z,20.62
2022-08-26T20:46:21.993Z,20.31
2022-08-26T20:56:48.385Z,20.25
2022-08-26T21:07:20.103Z,20.44
2022-08-26T21:17:58.407Z,20.12
